sensor_id;sensor_type;location;lat;lon;timestamp;P1;durP1;ratioP1;P2;durP2;ratioP2
41219;SDS011;26951;47.338;9.196;2023-04-08T00:00:28;2.55;;;2.35;;
41219;SDS011;26951;47.338;9.196;2023-04-08T00:03:12;2.78;;;2.40;;
41219;SDS011;26951;47.338;9.196;2023-04-08T00:05:56;3.13;;;2.88;;
41219;SDS011;26951;47.338;9.196;2023-04-08T00:08:41;3.00;;;2.70;;
41219;SDS011;26951;47.338;9.196;2023-04-08T00:11:25;3.00;;;2.70;;
41219;SDS011;26951;47.338;9.196;2023-04-08T00:14:09;2.60;;;2.40;;
41219;SDS011;26951;47.338;9.196;2023-04-08T00:16:53;2.92;;;2.63;;
41219;SDS011;26951;47.338;9.196;2023-04-08T00:19:37;2.80;;;2.60;;
41219;SDS011;26951;47.338;9.196;2023-04-08T00:22:21;3.17;;;2.40;;
41219;SDS011;26951;47.338;9.196;2023-04-08T00:25:06;5.70;;;4.28;;
41219;SDS011;26951;47.338;9.196;2023-04-08T00:27:52;4.05;;;2.95;;
41219;SDS011;26951;47.338;9.196;2023-04-08T00:30:36;3.33;;;3.03;;
41219;SDS011;26951;47.338;9.196;2023-04-08T00:33:20;3.70;;;2.65;;
41219;SDS011;26951;47.338;9.196;2023-04-08T00:36:07;2.88;;;2.50;;
41219;SDS011;26951;47.338;9.196;2023-04-08T00:38:51;2.90;;;2.60;;
41219;SDS011;26951;47.338;9.196;2023-04-08T00:41:35;3.20;;;2.78;;
41219;SDS011;26951;47.338;9.196;2023-04-08T00:44:19;2.78;;;2.45;;
41219;SDS011;26951;47.338;9.196;2023-04-08T00:47:03;2.67;;;2.17;;
41219;SDS011;26951;47.338;9.196;2023-04-08T00:49:48;3.15;;;2.35;;
41219;SDS011;26951;47.338;9.196;2023-04-08T00:52:34;2.15;;;1.95;;
41219;SDS011;26951;47.338;9.196;2023-04-08T00:55:19;2.25;;;2.05;;
41219;SDS011;26951;47.338;9.196;2023-04-08T00:58:03;2.75;;;2.38;;
41219;SDS011;26951;47.338;9.196;2023-04-08T01:05:54;2.35;;;2.15;;
41219;SDS011;26951;47.338;9.196;2023-04-08T01:08:43;2.67;;;2.47;;
41219;SDS011;26951;47.338;9.196;2023-04-08T01:11:28;3.60;;;3.10;;
41219;SDS011;26951;47.338;9.196;2023-04-08T01:14:16;3.13;;;2.63;;
41219;SDS011;26951;47.338;9.196;2023-04-08T01:17:03;3.22;;;2.60;;
41219;SDS011;26951;47.338;9.196;2023-04-08T01:19:48;3.40;;;3.10;;
41219;SDS011;26951;47.338;9.196;2023-04-08T01:25:29;3.33;;;2.88;;
41219;SDS011;26951;47.338;9.196;2023-04-08T01:28:15;4.07;;;3.33;;
41219;SDS011;26951;47.338;9.196;2023-04-08T01:31:01;2.92;;;2.63;;
41219;SDS011;26951;47.338;9.196;2023-04-08T01:33:46;3.08;;;2.50;;
41219;SDS011;26951;47.338;9.196;2023-04-08T01:36:31;2.65;;;2.45;;
41219;SDS011;26951;47.338;9.196;2023-04-08T01:39:18;2.65;;;2.38;;
41219;SDS011;26951;47.338;9.196;2023-04-08T01:42:03;3.15;;;2.85;;
41219;SDS011;26951;47.338;9.196;2023-04-08T01:44:49;3.35;;;2.83;;
41219;SDS011;26951;47.338;9.196;2023-04-08T01:47:35;3.83;;;3.03;;
41219;SDS011;26951;47.338;9.196;2023-04-08T01:50:21;2.92;;;2.63;;
41219;SDS011;26951;47.338;9.196;2023-04-08T01:53:08;3.72;;;3.25;;
41219;SDS011;26951;47.338;9.196;2023-04-08T01:56:11;3.25;;;2.95;;
41219;SDS011;26951;47.338;9.196;2023-04-08T01:58:58;3.20;;;2.65;;
41219;SDS011;26951;47.338;9.196;2023-04-08T02:01:44;4.63;;;2.47;;
41219;SDS011;26951;47.338;9.196;2023-04-08T02:07:14;2.92;;;2.63;;
41219;SDS011;26951;47.338;9.196;2023-04-08T02:09:58;2.58;;;2.38;;
41219;SDS011;26951;47.338;9.196;2023-04-08T02:12:43;3.00;;;2.67;;
41219;SDS011;26951;47.338;9.196;2023-04-08T02:15:28;2.85;;;2.50;;
41219;SDS011;26951;47.338;9.196;2023-04-08T02:18:20;3.30;;;3.00;;
41219;SDS011;26951;47.338;9.196;2023-04-08T02:21:10;3.33;;;3.03;;
41219;SDS011;26951;47.338;9.196;2023-04-08T02:23:58;3.25;;;2.65;;
41219;SDS011;26951;47.338;9.196;2023-04-08T02:26:48;3.33;;;2.70;;
41219;SDS011;26951;47.338;9.196;2023-04-08T02:29:34;4.00;;;2.70;;
41219;SDS011;26951;47.338;9.196;2023-04-08T02:32:19;3.25;;;2.95;;
41219;SDS011;26951;47.338;9.196;2023-04-08T02:35:06;3.45;;;2.85;;
41219;SDS011;26951;47.338;9.196;2023-04-08T02:37:54;3.15;;;2.85;;
41219;SDS011;26951;47.338;9.196;2023-04-08T02:40:38;3.17;;;2.88;;
41219;SDS011;26951;47.338;9.196;2023-04-08T02:43:23;3.65;;;3.10;;
41219;SDS011;26951;47.338;9.196;2023-04-08T02:46:14;3.45;;;3.15;;
41219;SDS011;26951;47.338;9.196;2023-04-08T02:48:58;3.10;;;2.80;;
41219;SDS011;26951;47.338;9.196;2023-04-08T02:51:43;3.28;;;2.75;;
41219;SDS011;26951;47.338;9.196;2023-04-08T02:54:27;2.80;;;2.50;;
41219;SDS011;26951;47.338;9.196;2023-04-08T02:57:11;2.97;;;2.63;;
41219;SDS011;26951;47.338;9.196;2023-04-08T02:59:55;3.25;;;2.88;;
41219;SDS011;26951;47.338;9.196;2023-04-08T03:02:40;3.45;;;2.83;;
41219;SDS011;26951;47.338;9.196;2023-04-08T03:05:25;3.53;;;2.97;;
41219;SDS011;26951;47.338;9.196;2023-04-08T03:08:09;3.20;;;2.72;;
41219;SDS011;26951;47.338;9.196;2023-04-08T03:10:53;3.63;;;3.03;;
41219;SDS011;26951;47.338;9.196;2023-04-08T03:13:38;3.25;;;2.92;;
41219;SDS011;26951;47.338;9.196;2023-04-08T03:16:22;3.17;;;2.70;;
41219;SDS011;26951;47.338;9.196;2023-04-08T03:19:06;3.20;;;2.90;;
41219;SDS011;26951;47.338;9.196;2023-04-08T03:21:50;3.33;;;2.75;;
41219;SDS011;26951;47.338;9.196;2023-04-08T03:24:35;3.35;;;3.05;;
41219;SDS011;26951;47.338;9.196;2023-04-08T03:27:19;3.47;;;2.95;;
41219;SDS011;26951;47.338;9.196;2023-04-08T03:30:03;2.60;;;2.40;;
41219;SDS011;26951;47.338;9.196;2023-04-08T03:32:47;3.28;;;2.88;;
41219;SDS011;26951;47.338;9.196;2023-04-08T03:35:31;2.95;;;2.63;;
41219;SDS011;26951;47.338;9.196;2023-04-08T03:38:16;3.17;;;2.88;;
41219;SDS011;26951;47.338;9.196;2023-04-08T03:41:00;3.83;;;3.40;;
41219;SDS011;26951;47.338;9.196;2023-04-08T03:43:45;3.22;;;2.92;;
41219;SDS011;26951;47.338;9.196;2023-04-08T03:46:29;4.35;;;3.95;;
41219;SDS011;26951;47.338;9.196;2023-04-08T03:49:13;3.83;;;3.20;;
41219;SDS011;26951;47.338;9.196;2023-04-08T03:51:57;3.97;;;3.20;;
41219;SDS011;26951;47.338;9.196;2023-04-08T03:54:41;3.50;;;3.08;;
41219;SDS011;26951;47.338;9.196;2023-04-08T03:57:25;4.68;;;3.13;;
41219;SDS011;26951;47.338;9.196;2023-04-08T04:00:09;3.25;;;2.75;;
41219;SDS011;26951;47.338;9.196;2023-04-08T04:02:54;2.50;;;2.30;;
41219;SDS011;26951;47.338;9.196;2023-04-08T04:05:39;3.58;;;2.83;;
41219;SDS011;26951;47.338;9.196;2023-04-08T04:08:23;3.22;;;2.92;;
41219;SDS011;26951;47.338;9.196;2023-04-08T04:11:07;3.47;;;3.17;;
41219;SDS011;26951;47.338;9.196;2023-04-08T04:13:51;3.60;;;3.30;;
41219;SDS011;26951;47.338;9.196;2023-04-08T04:16:35;4.00;;;3.60;;
41219;SDS011;26951;47.338;9.196;2023-04-08T04:19:19;3.70;;;3.30;;
41219;SDS011;26951;47.338;9.196;2023-04-08T04:22:03;3.67;;;2.83;;
41219;SDS011;26951;47.338;9.196;2023-04-08T04:24:47;3.42;;;2.90;;
41219;SDS011;26951;47.338;9.196;2023-04-08T04:27:32;4.18;;;3.00;;
41219;SDS011;26951;47.338;9.196;2023-04-08T04:30:16;4.10;;;3.15;;
41219;SDS011;26951;47.338;9.196;2023-04-08T04:35:46;3.65;;;3.30;;
41219;SDS011;26951;47.338;9.196;2023-04-08T04:38:30;3.75;;;3.42;;
41219;SDS011;26951;47.338;9.196;2023-04-08T04:41:14;3.50;;;3.20;;
41219;SDS011;26951;47.338;9.196;2023-04-08T04:43:58;3.97;;;3.20;;
41219;SDS011;26951;47.338;9.196;2023-04-08T04:46:42;3.50;;;3.13;;
41219;SDS011;26951;47.338;9.196;2023-04-08T04:49:26;4.18;;;3.17;;
41219;SDS011;26951;47.338;9.196;2023-04-08T04:52:10;3.60;;;3.22;;
41219;SDS011;26951;47.338;9.196;2023-04-08T04:54:56;3.85;;;3.30;;
41219;SDS011;26951;47.338;9.196;2023-04-08T04:57:40;4.07;;;3.25;;
41219;SDS011;26951;47.338;9.196;2023-04-08T05:00:24;4.00;;;3.60;;
41219;SDS011;26951;47.338;9.196;2023-04-08T05:03:08;4.55;;;3.58;;
41219;SDS011;26951;47.338;9.196;2023-04-08T05:05:53;3.75;;;3.28;;
41219;SDS011;26951;47.338;9.196;2023-04-08T05:08:37;3.88;;;3.40;;
41219;SDS011;26951;47.338;9.196;2023-04-08T05:11:21;4.00;;;3.55;;
41219;SDS011;26951;47.338;9.196;2023-04-08T05:14:06;3.95;;;3.50;;
41219;SDS011;26951;47.338;9.196;2023-04-08T05:16:50;4.07;;;3.33;;
41219;SDS011;26951;47.338;9.196;2023-04-08T05:19:34;3.30;;;3.00;;
41219;SDS011;26951;47.338;9.196;2023-04-08T05:22:18;4.90;;;4.07;;
41219;SDS011;26951;47.338;9.196;2023-04-08T05:25:02;5.10;;;4.00;;
41219;SDS011;26951;47.338;9.196;2023-04-08T05:27:47;4.20;;;3.75;;
41219;SDS011;26951;47.338;9.196;2023-04-08T05:30:31;4.05;;;3.63;;
41219;SDS011;26951;47.338;9.196;2023-04-08T05:33:15;4.95;;;3.63;;
41219;SDS011;26951;47.338;9.196;2023-04-08T05:36:00;4.53;;;4.13;;
41219;SDS011;26951;47.338;9.196;2023-04-08T05:38:44;5.03;;;4.50;;
41219;SDS011;26951;47.338;9.196;2023-04-08T05:41:29;4.95;;;4.20;;
41219;SDS011;26951;47.338;9.196;2023-04-08T05:44:13;5.65;;;5.05;;
41219;SDS011;26951;47.338;9.196;2023-04-08T05:46:57;5.45;;;4.90;;
41219;SDS011;26951;47.338;9.196;2023-04-08T05:49:42;6.18;;;5.07;;
41219;SDS011;26951;47.338;9.196;2023-04-08T05:52:27;5.07;;;4.38;;
41219;SDS011;26951;47.338;9.196;2023-04-08T05:55:14;4.35;;;3.95;;
41219;SDS011;26951;47.338;9.196;2023-04-08T05:57:58;4.57;;;4.00;;
41219;SDS011;26951;47.338;9.196;2023-04-08T06:00:42;5.85;;;4.50;;
41219;SDS011;26951;47.338;9.196;2023-04-08T06:03:26;4.75;;;4.22;;
41219;SDS011;26951;47.338;9.196;2023-04-08T06:06:10;4.47;;;4.07;;
41219;SDS011;26951;47.338;9.196;2023-04-08T06:08:54;4.70;;;4.15;;
41219;SDS011;26951;47.338;9.196;2023-04-08T06:11:38;4.38;;;3.97;;
41219;SDS011;26951;47.338;9.196;2023-04-08T06:14:22;4.20;;;3.80;;
41219;SDS011;26951;47.338;9.196;2023-04-08T06:17:06;4.80;;;4.10;;
41219;SDS011;26951;47.338;9.196;2023-04-08T06:19:51;4.35;;;3.72;;
41219;SDS011;26951;47.338;9.196;2023-04-08T06:22:35;4.38;;;3.75;;
41219;SDS011;26951;47.338;9.196;2023-04-08T06:25:20;4.47;;;3.67;;
41219;SDS011;26951;47.338;9.196;2023-04-08T06:28:04;4.32;;;3.90;;
41219;SDS011;26951;47.338;9.196;2023-04-08T06:30:48;4.60;;;3.60;;
41219;SDS011;26951;47.338;9.196;2023-04-08T06:33:32;3.85;;;3.40;;
41219;SDS011;26951;47.338;9.196;2023-04-08T06:36:16;4.88;;;3.60;;
41219;SDS011;26951;47.338;9.196;2023-04-08T06:39:00;4.30;;;3.85;;
41219;SDS011;26951;47.338;9.196;2023-04-08T06:41:45;4.97;;;4.18;;
41219;SDS011;26951;47.338;9.196;2023-04-08T06:44:29;5.93;;;3.95;;
41219;SDS011;26951;47.338;9.196;2023-04-08T06:47:13;4.45;;;3.78;;
41219;SDS011;26951;47.338;9.196;2023-04-08T06:49:57;5.00;;;4.05;;
41219;SDS011;26951;47.338;9.196;2023-04-08T06:52:42;4.82;;;3.78;;
41219;SDS011;26951;47.338;9.196;2023-04-08T06:55:26;5.00;;;4.13;;
41219;SDS011;26951;47.338;9.196;2023-04-08T06:58:10;4.85;;;4.20;;
41219;SDS011;26951;47.338;9.196;2023-04-08T07:00:54;4.97;;;4.45;;
41219;SDS011;26951;47.338;9.196;2023-04-08T07:03:39;5.22;;;4.22;;
41219;SDS011;26951;47.338;9.196;2023-04-08T07:06:24;4.85;;;4.07;;
41219;SDS011;26951;47.338;9.196;2023-04-08T07:09:08;5.25;;;4.45;;
41219;SDS011;26951;47.338;9.196;2023-04-08T07:11:52;5.18;;;4.45;;
41219;SDS011;26951;47.338;9.196;2023-04-08T07:14:36;8.98;;;5.20;;
41219;SDS011;26951;47.338;9.196;2023-04-08T07:17:20;6.50;;;5.22;;
41219;SDS011;26951;47.338;9.196;2023-04-08T07:20:05;6.07;;;5.43;;
41219;SDS011;26951;47.338;9.196;2023-04-08T07:22:49;5.30;;;4.80;;
41219;SDS011;26951;47.338;9.196;2023-04-08T07:25:34;6.25;;;5.35;;
41219;SDS011;26951;47.338;9.196;2023-04-08T07:28:19;6.25;;;5.30;;
41219;SDS011;26951;47.338;9.196;2023-04-08T07:33:57;6.80;;;5.13;;
41219;SDS011;26951;47.338;9.196;2023-04-08T07:36:41;7.18;;;5.78;;
41219;SDS011;26951;47.338;9.196;2023-04-08T07:39:25;6.35;;;5.38;;
41219;SDS011;26951;47.338;9.196;2023-04-08T07:42:11;6.85;;;5.70;;
41219;SDS011;26951;47.338;9.196;2023-04-08T07:44:55;6.60;;;5.75;;
41219;SDS011;26951;47.338;9.196;2023-04-08T07:47:39;7.28;;;5.97;;
41219;SDS011;26951;47.338;9.196;2023-04-08T07:50:23;5.70;;;5.10;;
41219;SDS011;26951;47.338;9.196;2023-04-08T07:53:07;7.60;;;5.75;;
41219;SDS011;26951;47.338;9.196;2023-04-08T07:55:52;6.68;;;5.47;;
41219;SDS011;26951;47.338;9.196;2023-04-08T07:58:36;6.07;;;5.03;;
41219;SDS011;26951;47.338;9.196;2023-04-08T08:01:23;6.57;;;5.07;;
41219;SDS011;26951;47.338;9.196;2023-04-08T08:04:07;6.20;;;5.07;;
41219;SDS011;26951;47.338;9.196;2023-04-08T08:06:51;6.30;;;5.25;;
41219;SDS011;26951;47.338;9.196;2023-04-08T08:09:35;6.80;;;5.50;;
41219;SDS011;26951;47.338;9.196;2023-04-08T08:12:19;6.47;;;5.15;;
41219;SDS011;26951;47.338;9.196;2023-04-08T08:15:03;5.32;;;4.82;;
41219;SDS011;26951;47.338;9.196;2023-04-08T08:17:48;7.15;;;5.40;;
41219;SDS011;26951;47.338;9.196;2023-04-08T08:20:31;6.90;;;5.38;;
41219;SDS011;26951;47.338;9.196;2023-04-08T08:23:18;7.20;;;5.75;;
41219;SDS011;26951;47.338;9.196;2023-04-08T08:26:03;6.30;;;5.00;;
41219;SDS011;26951;47.338;9.196;2023-04-08T08:28:48;5.97;;;4.85;;
41219;SDS011;26951;47.338;9.196;2023-04-08T08:31:33;5.82;;;4.90;;
41219;SDS011;26951;47.338;9.196;2023-04-08T08:34:17;5.82;;;5.22;;
41219;SDS011;26951;47.338;9.196;2023-04-08T08:37:02;7.53;;;5.72;;
41219;SDS011;26951;47.338;9.196;2023-04-08T08:39:46;7.25;;;5.55;;
41219;SDS011;26951;47.338;9.196;2023-04-08T08:42:30;6.35;;;5.57;;
41219;SDS011;26951;47.338;9.196;2023-04-08T08:45:15;6.15;;;4.78;;
41219;SDS011;26951;47.338;9.196;2023-04-08T08:48:01;7.45;;;5.47;;
41219;SDS011;26951;47.338;9.196;2023-04-08T08:50:45;5.82;;;5.07;;
41219;SDS011;26951;47.338;9.196;2023-04-08T08:53:30;6.30;;;4.90;;
41219;SDS011;26951;47.338;9.196;2023-04-08T08:56:14;5.80;;;5.10;;
41219;SDS011;26951;47.338;9.196;2023-04-08T08:58:58;5.25;;;4.60;;
41219;SDS011;26951;47.338;9.196;2023-04-08T09:01:42;6.30;;;5.10;;
41219;SDS011;26951;47.338;9.196;2023-04-08T09:04:27;5.28;;;4.70;;
41219;SDS011;26951;47.338;9.196;2023-04-08T09:07:11;5.70;;;4.47;;
41219;SDS011;26951;47.338;9.196;2023-04-08T09:09:57;6.32;;;5.63;;
41219;SDS011;26951;47.338;9.196;2023-04-08T09:12:52;5.60;;;5.00;;
41219;SDS011;26951;47.338;9.196;2023-04-08T09:15:50;6.25;;;4.93;;
41219;SDS011;26951;47.338;9.196;2023-04-08T09:18:47;5.50;;;4.47;;
41219;SDS011;26951;47.338;9.196;2023-04-08T09:21:32;8.10;;;5.20;;
41219;SDS011;26951;47.338;9.196;2023-04-08T09:24:26;6.57;;;5.32;;
41219;SDS011;26951;47.338;9.196;2023-04-08T09:27:11;7.13;;;4.28;;
41219;SDS011;26951;47.338;9.196;2023-04-08T09:30:11;7.88;;;5.22;;
41219;SDS011;26951;47.338;9.196;2023-04-08T09:32:56;6.28;;;4.40;;
41219;SDS011;26951;47.338;9.196;2023-04-08T09:35:40;5.88;;;4.95;;
41219;SDS011;26951;47.338;9.196;2023-04-08T09:38:27;6.18;;;4.95;;
41219;SDS011;26951;47.338;9.196;2023-04-08T09:41:15;7.78;;;5.45;;
41219;SDS011;26951;47.338;9.196;2023-04-08T09:44:02;7.03;;;5.45;;
41219;SDS011;26951;47.338;9.196;2023-04-08T09:49:49;7.45;;;5.45;;
41219;SDS011;26951;47.338;9.196;2023-04-08T09:55:29;7.25;;;5.35;;
41219;SDS011;26951;47.338;9.196;2023-04-08T09:58:18;6.68;;;4.63;;
41219;SDS011;26951;47.338;9.196;2023-04-08T10:01:11;6.70;;;4.70;;
41219;SDS011;26951;47.338;9.196;2023-04-08T10:03:57;6.25;;;5.07;;
41219;SDS011;26951;47.338;9.196;2023-04-08T10:06:44;6.82;;;5.03;;
41219;SDS011;26951;47.338;9.196;2023-04-08T10:09:31;7.40;;;5.43;;
41219;SDS011;26951;47.338;9.196;2023-04-08T10:12:16;7.55;;;5.32;;
41219;SDS011;26951;47.338;9.196;2023-04-08T10:21:01;6.25;;;4.78;;
41219;SDS011;26951;47.338;9.196;2023-04-08T10:23:55;7.27;;;4.77;;
41219;SDS011;26951;47.338;9.196;2023-04-08T10:26:45;7.32;;;5.03;;
41219;SDS011;26951;47.338;9.196;2023-04-08T10:29:31;6.72;;;4.85;;
41219;SDS011;26951;47.338;9.196;2023-04-08T10:32:28;5.95;;;4.60;;
41219;SDS011;26951;47.338;9.196;2023-04-08T10:35:12;6.28;;;4.55;;
41219;SDS011;26951;47.338;9.196;2023-04-08T10:37:57;6.22;;;4.82;;
41219;SDS011;26951;47.338;9.196;2023-04-08T10:40:42;7.13;;;5.22;;
41219;SDS011;26951;47.338;9.196;2023-04-08T10:43:31;6.60;;;5.20;;
41219;SDS011;26951;47.338;9.196;2023-04-08T10:46:18;7.30;;;5.15;;
41219;SDS011;26951;47.338;9.196;2023-04-08T10:49:03;5.75;;;5.13;;
41219;SDS011;26951;47.338;9.196;2023-04-08T10:51:47;6.35;;;5.45;;
41219;SDS011;26951;47.338;9.196;2023-04-08T10:54:31;6.25;;;4.75;;
41219;SDS011;26951;47.338;9.196;2023-04-08T10:57:22;7.78;;;5.35;;
41219;SDS011;26951;47.338;9.196;2023-04-08T11:00:10;7.57;;;5.53;;
41219;SDS011;26951;47.338;9.196;2023-04-08T11:02:54;6.75;;;5.50;;
41219;SDS011;26951;47.338;9.196;2023-04-08T11:05:42;6.47;;;5.50;;
41219;SDS011;26951;47.338;9.196;2023-04-08T11:08:27;7.68;;;6.10;;
41219;SDS011;26951;47.338;9.196;2023-04-08T11:11:13;6.85;;;5.63;;
41219;SDS011;26951;47.338;9.196;2023-04-08T11:13:58;8.85;;;5.53;;
41219;SDS011;26951;47.338;9.196;2023-04-08T11:16:42;6.60;;;5.40;;
41219;SDS011;26951;47.338;9.196;2023-04-08T11:19:27;7.32;;;6.18;;
41219;SDS011;26951;47.338;9.196;2023-04-08T11:22:12;8.27;;;6.85;;
41219;SDS011;26951;47.338;9.196;2023-04-08T11:24:56;8.50;;;6.18;;
41219;SDS011;26951;47.338;9.196;2023-04-08T11:27:40;7.80;;;5.75;;
41219;SDS011;26951;47.338;9.196;2023-04-08T11:30:25;6.97;;;5.87;;
41219;SDS011;26951;47.338;9.196;2023-04-08T11:33:11;7.07;;;5.90;;
41219;SDS011;26951;47.338;9.196;2023-04-08T11:35:56;8.38;;;6.75;;
41219;SDS011;26951;47.338;9.196;2023-04-08T11:38:40;7.57;;;5.80;;
41219;SDS011;26951;47.338;9.196;2023-04-08T11:41:24;6.63;;;5.63;;
41219;SDS011;26951;47.338;9.196;2023-04-08T11:44:18;6.47;;;5.60;;
41219;SDS011;26951;47.338;9.196;2023-04-08T11:47:03;8.00;;;5.73;;
41219;SDS011;26951;47.338;9.196;2023-04-08T11:49:48;7.32;;;6.18;;
41219;SDS011;26951;47.338;9.196;2023-04-08T11:52:51;7.55;;;5.65;;
41219;SDS011;26951;47.338;9.196;2023-04-08T11:55:35;7.65;;;6.57;;
41219;SDS011;26951;47.338;9.196;2023-04-08T11:58:19;8.25;;;6.55;;
41219;SDS011;26951;47.338;9.196;2023-04-08T12:01:04;8.10;;;6.32;;
41219;SDS011;26951;47.338;9.196;2023-04-08T12:03:55;7.40;;;6.10;;
41219;SDS011;26951;47.338;9.196;2023-04-08T12:06:41;8.30;;;6.40;;
41219;SDS011;26951;47.338;9.196;2023-04-08T12:09:29;6.85;;;5.90;;
41219;SDS011;26951;47.338;9.196;2023-04-08T12:12:13;8.88;;;6.43;;
41219;SDS011;26951;47.338;9.196;2023-04-08T12:14:57;8.75;;;6.82;;
41219;SDS011;26951;47.338;9.196;2023-04-08T12:17:41;8.82;;;7.10;;
41219;SDS011;26951;47.338;9.196;2023-04-08T12:20:29;9.05;;;7.13;;
41219;SDS011;26951;47.338;9.196;2023-04-08T12:23:13;9.05;;;7.35;;
41219;SDS011;26951;47.338;9.196;2023-04-08T12:25:58;8.20;;;6.75;;
41219;SDS011;26951;47.338;9.196;2023-04-08T12:28:42;9.23;;;7.68;;
41219;SDS011;26951;47.338;9.196;2023-04-08T12:31:26;9.68;;;7.20;;
41219;SDS011;26951;47.338;9.196;2023-04-08T12:34:10;10.32;;;7.40;;
41219;SDS011;26951;47.338;9.196;2023-04-08T12:36:54;9.38;;;7.85;;
41219;SDS011;26951;47.338;9.196;2023-04-08T12:39:39;12.20;;;8.95;;
41219;SDS011;26951;47.338;9.196;2023-04-08T12:42:23;9.05;;;7.80;;
41219;SDS011;26951;47.338;9.196;2023-04-08T12:45:07;9.90;;;8.20;;
41219;SDS011;26951;47.338;9.196;2023-04-08T12:47:51;9.32;;;8.07;;
41219;SDS011;26951;47.338;9.196;2023-04-08T12:50:35;10.18;;;8.38;;
41219;SDS011;26951;47.338;9.196;2023-04-08T12:53:20;9.57;;;8.55;;
41219;SDS011;26951;47.338;9.196;2023-04-08T12:56:04;9.18;;;7.25;;
41219;SDS011;26951;47.338;9.196;2023-04-08T12:58:48;8.65;;;7.55;;
41219;SDS011;26951;47.338;9.196;2023-04-08T13:01:34;9.23;;;7.85;;
41219;SDS011;26951;47.338;9.196;2023-04-08T13:04:18;8.75;;;7.20;;
41219;SDS011;26951;47.338;9.196;2023-04-08T13:07:02;10.82;;;7.75;;
41219;SDS011;26951;47.338;9.196;2023-04-08T13:09:47;10.18;;;7.45;;
41219;SDS011;26951;47.338;9.196;2023-04-08T13:12:32;9.38;;;8.38;;
41219;SDS011;26951;47.338;9.196;2023-04-08T13:15:16;11.27;;;8.60;;
41219;SDS011;26951;47.338;9.196;2023-04-08T13:18:00;11.35;;;7.15;;
41219;SDS011;26951;47.338;9.196;2023-04-08T13:20:44;9.20;;;8.02;;
41219;SDS011;26951;47.338;9.196;2023-04-08T13:23:28;8.73;;;7.68;;
41219;SDS011;26951;47.338;9.196;2023-04-08T13:26:12;8.60;;;7.43;;
41219;SDS011;26951;47.338;9.196;2023-04-08T13:28:56;9.98;;;8.10;;
41219;SDS011;26951;47.338;9.196;2023-04-08T13:31:41;11.45;;;8.50;;
41219;SDS011;26951;47.338;9.196;2023-04-08T13:34:25;9.50;;;7.85;;
41219;SDS011;26951;47.338;9.196;2023-04-08T13:37:09;9.82;;;7.88;;
41219;SDS011;26951;47.338;9.196;2023-04-08T13:39:53;8.50;;;7.25;;
41219;SDS011;26951;47.338;9.196;2023-04-08T13:42:38;8.65;;;7.50;;
41219;SDS011;26951;47.338;9.196;2023-04-08T13:45:22;9.18;;;7.93;;
41219;SDS011;26951;47.338;9.196;2023-04-08T13:48:06;12.45;;;10.60;;
41219;SDS011;26951;47.338;9.196;2023-04-08T13:50:50;13.60;;;10.20;;
41219;SDS011;26951;47.338;9.196;2023-04-08T13:53:35;11.85;;;9.57;;
41219;SDS011;26951;47.338;9.196;2023-04-08T14:00:18;13.48;;;9.98;;
41219;SDS011;26951;47.338;9.196;2023-04-08T14:03:02;14.13;;;10.20;;
41219;SDS011;26951;47.338;9.196;2023-04-08T14:05:46;10.98;;;9.50;;
41219;SDS011;26951;47.338;9.196;2023-04-08T14:08:31;11.75;;;9.82;;
41219;SDS011;26951;47.338;9.196;2023-04-08T14:11:16;13.10;;;10.63;;
41219;SDS011;26951;47.338;9.196;2023-04-08T14:14:00;11.13;;;9.02;;
41219;SDS011;26951;47.338;9.196;2023-04-08T14:16:44;12.50;;;9.70;;
41219;SDS011;26951;47.338;9.196;2023-04-08T14:19:29;12.15;;;9.13;;
41219;SDS011;26951;47.338;9.196;2023-04-08T14:22:13;11.23;;;9.13;;
41219;SDS011;26951;47.338;9.196;2023-04-08T14:24:58;10.05;;;8.60;;
41219;SDS011;26951;47.338;9.196;2023-04-08T14:27:42;9.70;;;7.88;;
41219;SDS011;26951;47.338;9.196;2023-04-08T14:30:27;11.35;;;9.52;;
41219;SDS011;26951;47.338;9.196;2023-04-08T14:33:11;12.63;;;10.30;;
41219;SDS011;26951;47.338;9.196;2023-04-08T14:35:55;11.07;;;8.40;;
41219;SDS011;26951;47.338;9.196;2023-04-08T14:41:25;10.75;;;8.00;;
41219;SDS011;26951;47.338;9.196;2023-04-08T14:44:09;10.98;;;8.55;;
41219;SDS011;26951;47.338;9.196;2023-04-08T14:46:54;10.15;;;7.97;;
41219;SDS011;26951;47.338;9.196;2023-04-08T14:49:38;9.60;;;7.93;;
41219;SDS011;26951;47.338;9.196;2023-04-08T14:52:22;9.82;;;8.25;;
41219;SDS011;26951;47.338;9.196;2023-04-08T14:55:07;11.15;;;8.45;;
41219;SDS011;26951;47.338;9.196;2023-04-08T14:57:51;10.35;;;7.90;;
41219;SDS011;26951;47.338;9.196;2023-04-08T15:00:37;9.63;;;7.75;;
41219;SDS011;26951;47.338;9.196;2023-04-08T15:03:21;11.02;;;9.00;;
41219;SDS011;26951;47.338;9.196;2023-04-08T15:06:05;8.02;;;6.90;;
41219;SDS011;26951;47.338;9.196;2023-04-08T15:08:49;9.40;;;7.38;;
41219;SDS011;26951;47.338;9.196;2023-04-08T15:11:34;7.25;;;5.88;;
41219;SDS011;26951;47.338;9.196;2023-04-08T15:14:18;6.47;;;5.40;;
41219;SDS011;26951;47.338;9.196;2023-04-08T15:17:02;4.97;;;3.95;;
41219;SDS011;26951;47.338;9.196;2023-04-08T15:19:47;4.47;;;3.85;;
41219;SDS011;26951;47.338;9.196;2023-04-08T15:22:31;5.28;;;4.20;;
41219;SDS011;26951;47.338;9.196;2023-04-08T15:25:15;9.00;;;6.70;;
41219;SDS011;26951;47.338;9.196;2023-04-08T15:27:59;6.30;;;4.93;;
41219;SDS011;26951;47.338;9.196;2023-04-08T15:30:45;6.05;;;4.88;;
41219;SDS011;26951;47.338;9.196;2023-04-08T15:33:29;5.72;;;4.38;;
41219;SDS011;26951;47.338;9.196;2023-04-08T15:36:14;5.72;;;3.60;;
41219;SDS011;26951;47.338;9.196;2023-04-08T15:39:01;5.85;;;4.20;;
41219;SDS011;26951;47.338;9.196;2023-04-08T15:41:46;4.60;;;3.97;;
41219;SDS011;26951;47.338;9.196;2023-04-08T15:44:31;6.10;;;4.05;;
41219;SDS011;26951;47.338;9.196;2023-04-08T15:47:15;5.10;;;4.22;;
41219;SDS011;26951;47.338;9.196;2023-04-08T15:49:59;4.65;;;3.75;;
41219;SDS011;26951;47.338;9.196;2023-04-08T15:52:43;4.82;;;3.70;;
41219;SDS011;26951;47.338;9.196;2023-04-08T15:55:28;5.50;;;4.00;;
41219;SDS011;26951;47.338;9.196;2023-04-08T15:58:13;6.07;;;4.63;;
41219;SDS011;26951;47.338;9.196;2023-04-08T16:00:58;5.95;;;4.97;;
41219;SDS011;26951;47.338;9.196;2023-04-08T16:03:42;5.13;;;4.32;;
41219;SDS011;26951;47.338;9.196;2023-04-08T16:06:26;5.53;;;4.47;;
41219;SDS011;26951;47.338;9.196;2023-04-08T16:09:10;5.38;;;4.22;;
41219;SDS011;26951;47.338;9.196;2023-04-08T16:11:54;5.57;;;4.47;;
41219;SDS011;26951;47.338;9.196;2023-04-08T16:14:38;5.32;;;4.45;;
41219;SDS011;26951;47.338;9.196;2023-04-08T16:17:23;5.55;;;4.57;;
41219;SDS011;26951;47.338;9.196;2023-04-08T16:20:07;5.38;;;4.30;;
41219;SDS011;26951;47.338;9.196;2023-04-08T16:22:52;5.03;;;3.80;;
41219;SDS011;26951;47.338;9.196;2023-04-08T16:25:36;4.72;;;4.00;;
41219;SDS011;26951;47.338;9.196;2023-04-08T16:28:20;4.70;;;3.92;;
41219;SDS011;26951;47.338;9.196;2023-04-08T16:31:05;4.70;;;3.85;;
41219;SDS011;26951;47.338;9.196;2023-04-08T16:33:49;4.82;;;3.65;;
41219;SDS011;26951;47.338;9.196;2023-04-08T16:36:33;4.65;;;3.63;;
41219;SDS011;26951;47.338;9.196;2023-04-08T16:39:18;4.93;;;4.05;;
41219;SDS011;26951;47.338;9.196;2023-04-08T16:42:02;4.85;;;4.30;;
41219;SDS011;26951;47.338;9.196;2023-04-08T16:44:46;4.85;;;3.92;;
41219;SDS011;26951;47.338;9.196;2023-04-08T16:47:30;5.93;;;4.47;;
41219;SDS011;26951;47.338;9.196;2023-04-08T16:50:14;5.32;;;3.78;;
41219;SDS011;26951;47.338;9.196;2023-04-08T16:52:59;4.13;;;3.08;;
41219;SDS011;26951;47.338;9.196;2023-04-08T16:55:43;4.28;;;3.40;;
41219;SDS011;26951;47.338;9.196;2023-04-08T16:58:27;4.05;;;3.53;;
41219;SDS011;26951;47.338;9.196;2023-04-08T17:01:11;3.88;;;3.35;;
41219;SDS011;26951;47.338;9.196;2023-04-08T17:03:58;3.95;;;3.53;;
41219;SDS011;26951;47.338;9.196;2023-04-08T17:06:43;3.90;;;3.45;;